Los Angeles, CA (90044)

10:25 PM PDT on October 19, 2014 (GMT -0700)
View Park-Windsor Hills | Change Station
CLOSE
Current Station
Personal Weather Station
Location: Los Angeles, CA
Elevation: 328 ft
Nearby Weather Stations

Elev 328 ft 34.00 °N, 118.35 °W | Updated 2 minutes ago

Overcast
Overcast
66.4 °F
Feels Like 66.4 °F
N
4.0
Wind Variable Wind from WNW
Gusts 4.0 mph

Today
High -- | Low -- °F
--% Chance of Precip.
Yesterday
High -- | Low -- °F
Precip. -- in
7:01 AM 6:14 PM
Waning Crescent, 13% visible
Pressure 29.87 in
Visibility 10.0 miles
Clouds Mostly Cloudy 1200 ft
Dew Point 64 °F
Humidity 91%
Rainfall 0.00 in
Snow Depth Not available.
UV 0 out of 12
Pollen 3.70 out of 12
Air Quality Not available.
Flu Activity Sporadic
SPECI KHHR 200310Z AUTO 28004KT 10SM BKN012 21/18 A2987 RMK AO2 T02060178 $

More Conditions Fewer Conditions

Pressure 29.87 in
Visibility 10.0 miles
Clouds Mostly Cloudy 1200 ft
Dew Point 64 °F
Humidity 91%
Rainfall 0.00 in
Snow Depth Not available.
UV 0 out of 12
Pollen 3.70 out of 12
Air Quality Not available.
Flu Activity Sporadic
SPECI KHHR 200310Z AUTO 28004KT 10SM BKN012 21/18 A2987 RMK AO2 T02060178 $

More Conditions Fewer Conditions

10-Day Weather Forecast

Almanac

Astronomy

Oct. 19, 2014 Rise Set
Actual Time 7:01 AM PDT 6:14 PM PDT
Civil Twilight 6:36 AM PDT 6:39 PM PDT
Nautical Twilight 6:07 AM PDT 7:08 PM PDT
Astronomical Twilight 5:38 AM PDT 7:37 PM PDT
Moon 3:09 AM PDT (10/19) 3:58 PM PDT (10/19)
Length of Visible Light 12h 03m
Length of Day
11h 12m
Waning Crescent, 13% of the Moon is Illuminated
Oct 20
Waning Crescent
Oct 23
New
Oct 30
First Quarter
Nov 6
Full
Nov 14
Last Quarter

Yesterday's Extremes

State Highs State Lows

Community

WunderPhotos

Upload Photos

1,763,313 photos uploaded!

Nearby

Air Quality

  Air Quality AQ Index Pollutant
Yesterday Good
OZONE
Monday Good
PM10
Monday Good
OZONE
Monday Good
CO
Monday Good
NO2

Snow Depth

Station Depth Elevation
Leavitt Lake 0 in 9400 ft
Sonora Pass 0 in 8800 ft
Leavitt Meadows 1 in 7200 ft
Summit Meadow 1 in 9122 ft
Poison Flat 0 in 7900 ft

Earthquake Activity

City Distance Mag. Time & Date
Fort Irwin, California 125 miles 3.1 6:03 AM PDT
2014-10-17
Minimum magnitude displayed is 2.5.

Coastal Water Temperatures

Place Temperature
Santa Monica Pier 71.1 °F
Los Angeles, CA 70.0 °F
La Jolla, CA 71.1 °F

Nearby Weather Stations